createdAt,value
2019-05-06T00:02:02.019Z,66.21
2019-05-06T00:04:34.066Z,66.38
2019-05-06T00:07:05.704Z,66.47
2019-05-06T00:09:37.021Z,66.87
2019-05-06T00:12:08.701Z,67.09
2019-05-06T00:14:39.938Z,66.97
2019-05-06T00:17:11.566Z,66.98
2019-05-06T00:19:44.746Z,67.18
2019-05-06T00:22:17.181Z,66.93
2019-05-06T00:25:00.163Z,67.17
2019-05-06T00:27:49.353Z,66.88
2019-05-06T00:30:20.814Z,67.01
2019-05-06T00:32:53.824Z,66.85
2019-05-06T00:35:25.272Z,66.98
2019-05-06T00:37:56.693Z,66.28
2019-05-06T00:40:35.633Z,66.19
2019-05-06T00:43:08.909Z,66.04
2019-05-06T00:45:40.358Z,65.70
2019-05-06T00:48:13.850Z,65.65
2019-05-06T00:50:44.582Z,65.82
2019-05-06T00:53:20.257Z,65.79
2019-05-06T00:55:53.666Z,65.92
2019-05-06T00:58:24.845Z,65.88
2019-05-06T01:00:56.541Z,65.99
2019-05-06T01:03:27.837Z,66.06
2019-05-06T01:05:59.169Z,66.09
2019-05-06T01:08:30.466Z,66.39
2019-05-06T01:11:04.038Z,66.20
2019-05-06T01:13:43.803Z,66.30
2019-05-06T01:16:16.031Z,66.42
2019-05-06T01:18:47.256Z,66.21
2019-05-06T01:21:18.577Z,66.30
2019-05-06T01:23:49.917Z,66.41
2019-05-06T01:26:21.223Z,66.07
2019-05-06T01:28:54.544Z,66.10
2019-05-06T01:31:39.490Z,65.67
2019-05-06T01:33:58.703Z,65.83
2019-05-06T01:36:30.035Z,65.92
2019-05-06T01:39:17.938Z,65.33
2019-05-06T01:41:56.831Z,64.86
2019-05-06T01:44:28.265Z,64.97
2019-05-06T01:46:59.594Z,64.73
2019-05-06T01:49:30.922Z,64.80
2019-05-06T01:52:04.093Z,64.78
2019-05-06T01:54:35.584Z,64.92
2019-05-06T01:57:06.955Z,65.17
2019-05-06T01:59:38.280Z,65.55
2019-05-06T02:02:09.666Z,65.73
2019-05-06T02:04:41.058Z,66.14
2019-05-06T02:07:14.482Z,66.14
2019-05-06T02:09:45.895Z,66.53
2019-05-06T02:12:18.199Z,66.59
2019-05-06T02:14:49.670Z,66.88
2019-05-06T02:17:20.983Z,67.02
2019-05-06T02:19:54.454Z,67.05
2019-05-06T02:22:27.053Z,67.42
2019-05-06T02:25:04.479Z,67.71
2019-05-06T02:27:42.190Z,67.71
2019-05-06T02:30:18.557Z,67.87
2019-05-06T02:32:51.614Z,68.13
2019-05-06T02:35:26.297Z,68.01
2019-05-06T02:37:57.634Z,67.88
2019-05-06T02:40:33.256Z,68.22
2019-05-06T02:43:03.949Z,68.28
2019-05-06T02:45:35.333Z,68.50
2019-05-06T02:48:13.803Z,68.26
2019-05-06T02:50:43.932Z,68.42
2019-05-06T02:53:16.988Z,68.30
2019-05-06T02:55:48.399Z,68.31
2019-05-06T02:58:19.767Z,68.40
2019-05-06T03:00:53.713Z,68.58
2019-05-06T03:03:24.284Z,68.54
2019-05-06T03:05:55.517Z,68.45
2019-05-06T03:08:26.902Z,68.04
2019-05-06T03:10:58.275Z,67.97
2019-05-06T03:13:34.003Z,67.83
2019-05-06T03:16:05.807Z,67.77
2019-05-06T03:18:37.419Z,67.60
2019-05-06T03:21:13.547Z,67.52
2019-05-06T03:23:43.835Z,67.43
2019-05-06T03:26:15.318Z,67.46
2019-05-06T03:28:46.653Z,67.54
2019-05-06T03:31:17.945Z,67.48
2019-05-06T03:34:09.245Z,67.38
2019-05-06T03:36:27.279Z,67.49
2019-05-06T03:38:55.407Z,67.53
2019-05-06T03:41:26.958Z,67.48
2019-05-06T03:43:58.279Z,67.55
2019-05-06T03:46:33.611Z,67.69
2019-05-06T03:49:06.130Z,68.15
2019-05-06T03:51:37.867Z,68.34
2019-05-06T03:54:12.648Z,68.43
2019-05-06T03:56:43.721Z,68.58
2019-05-06T03:59:17.849Z,68.17
2019-05-06T04:01:49.189Z,68.11
2019-05-06T04:04:23.248Z,67.71
2019-05-06T04:06:54.022Z,68.03
2019-05-06T04:09:27.301Z,68.16
2019-05-06T04:11:59.394Z,68.35
2019-05-06T04:14:33.804Z,68.03
2019-05-06T04:17:15.418Z,67.90
2019-05-06T04:19:57.582Z,67.98
2019-05-06T04:22:36.918Z,68.29
2019-05-06T04:25:14.001Z,68.46
2019-05-06T04:27:49.678Z,68.67
2019-05-06T04:30:24.359Z,68.78
2019-05-06T04:32:55.120Z,68.69
2019-05-06T04:35:26.552Z,68.70
2019-05-06T04:37:58.129Z,68.75
2019-05-06T04:40:32.952Z,68.80
2019-05-06T04:43:03.621Z,68.89
2019-05-06T04:45:37.800Z,68.78
2019-05-06T04:48:13.955Z,68.90
2019-05-06T04:50:44.562Z,68.85
2019-05-06T04:53:16.487Z,68.89
2019-05-06T04:55:47.820Z,69.21
2019-05-06T04:58:19.248Z,69.02
2019-05-06T05:00:53.105Z,69.25
2019-05-06T05:03:24.866Z,69.20
2019-05-06T05:05:56.611Z,69.08
2019-05-06T05:08:36.900Z,69.44
2019-05-06T05:11:12.913Z,69.53
2019-05-06T05:13:52.960Z,68.60
2019-05-06T05:16:27.565Z,68.59
2019-05-06T05:19:06.369Z,68.58
2019-05-06T05:21:37.892Z,68.37
2019-05-06T05:24:09.344Z,68.26
2019-05-06T05:26:44.109Z,67.69
2019-05-06T05:29:14.584Z,67.05
2019-05-06T05:31:46.117Z,66.14
2019-05-06T05:34:17.599Z,66.85
2019-05-06T05:36:49.047Z,67.50
2019-05-06T05:39:22.283Z,66.93
2019-05-06T05:41:55.434Z,66.24
2019-05-06T05:44:34.443Z,65.97
2019-05-06T05:47:05.965Z,66.12
2019-05-06T05:49:54.815Z,65.70
2019-05-06T05:52:26.318Z,65.59
2019-05-06T05:54:57.653Z,65.78
2019-05-06T05:57:28.965Z,64.68
2019-05-06T06:00:00.431Z,64.69
2019-05-06T06:02:33.284Z,64.72
2019-05-06T06:05:06.631Z,64.89
2019-05-06T06:07:38.253Z,64.65
2019-05-06T06:10:22.645Z,64.70
2019-05-06T06:12:56.175Z,64.25
2019-05-06T06:15:27.346Z,63.78
2019-05-06T06:17:59.120Z,63.85
2019-05-06T06:20:48.063Z,63.75
2019-05-06T06:23:24.146Z,61.83
2019-05-06T06:25:55.473Z,61.27
2019-05-06T06:28:26.936Z,61.06
2019-05-06T06:31:16.267Z,60.59
2019-05-06T06:33:49.162Z,60.55
2019-05-06T06:36:28.194Z,60.27
2019-05-06T06:39:04.229Z,60.01
2019-05-06T06:41:37.157Z,58.86
2019-05-06T06:44:10.375Z,58.77
2019-05-06T06:46:42.934Z,58.43
2019-05-06T06:49:14.385Z,57.83
2019-05-06T06:51:46.106Z,57.72
2019-05-06T06:54:17.402Z,56.18
2019-05-06T06:57:04.658Z,56.51
2019-05-06T06:59:32.689Z,57.14
2019-05-06T07:02:05.767Z,56.50
2019-05-06T07:04:39.589Z,55.92
2019-05-06T07:07:12.929Z,55.84
2019-05-06T07:09:44.596Z,55.31
2019-05-06T07:12:15.937Z,55.21
2019-05-06T07:14:47.300Z,55.12
2019-05-06T07:17:18.615Z,55.53
2019-05-06T07:20:02.774Z,55.58
2019-05-06T07:22:37.298Z,53.62
2019-05-06T07:25:10.079Z,53.01
2019-05-06T07:27:42.057Z,52.82
2019-05-06T07:30:14.127Z,53.28
2019-05-06T07:32:45.366Z,52.12
2019-05-06T07:35:16.820Z,52.90
2019-05-06T07:37:48.213Z,52.86
2019-05-06T07:40:21.559Z,51.45
2019-05-06T07:42:54.492Z,50.12
2019-05-06T07:45:27.489Z,50.75
2019-05-06T07:48:00.400Z,49.84
2019-05-06T07:50:33.226Z,50.31
2019-05-06T07:53:08.071Z,49.41
2019-05-06T07:55:42.384Z,51.51
2019-05-06T07:58:14.056Z,48.65
2019-05-06T08:00:45.364Z,49.19
2019-05-06T08:03:16.677Z,49.00
2019-05-06T08:05:58.062Z,48.62
2019-05-06T08:08:23.052Z,48.58
2019-05-06T08:10:54.280Z,48.28
2019-05-06T08:13:25.631Z,49.80
2019-05-06T08:15:57.066Z,45.54
2019-05-06T08:18:28.415Z,45.60
2019-05-06T08:21:02.473Z,45.76
2019-05-06T08:23:48.795Z,44.63
2019-05-06T08:26:22.232Z,43.82
2019-05-06T08:28:53.338Z,45.49
2019-05-06T08:31:27.637Z,44.84
2019-05-06T08:33:58.889Z,43.35
2019-05-06T08:36:42.760Z,44.25
2019-05-06T08:39:14.735Z,44.19
2019-05-06T08:41:46.061Z,43.69
2019-05-06T08:44:17.531Z,41.60
2019-05-06T08:46:48.945Z,41.54
2019-05-06T08:49:22.413Z,43.51
2019-05-06T08:51:57.857Z,44.18
2019-05-06T08:54:45.559Z,41.49
2019-05-06T08:57:16.956Z,42.08
2019-05-06T08:59:48.239Z,43.53
2019-05-06T09:02:22.850Z,45.22
2019-05-06T09:04:54.295Z,43.38
2019-05-06T09:07:26.714Z,39.61
2019-05-06T09:09:58.108Z,39.10
2019-05-06T09:12:29.375Z,41.01
2019-05-06T09:15:03.271Z,39.64
2019-05-06T09:17:33.900Z,41.55
2019-05-06T09:20:08.146Z,40.61
2019-05-06T09:22:39.546Z,39.09
2019-05-06T09:25:12.833Z,40.26
2019-05-06T09:27:46.639Z,39.27
2019-05-06T09:30:22.950Z,41.30
2019-05-06T09:32:54.371Z,40.67
2019-05-06T09:35:25.651Z,42.81
2019-05-06T09:37:57.102Z,41.05
2019-05-06T09:40:28.467Z,41.76
2019-05-06T09:42:59.869Z,41.65
2019-05-06T09:45:32.984Z,42.54
2019-05-06T09:48:15.715Z,41.89
2019-05-06T09:50:48.630Z,41.57
2019-05-06T09:53:25.578Z,42.92
2019-05-06T09:56:03.411Z,41.93
2019-05-06T09:58:36.290Z,43.22
2019-05-06T10:01:09.054Z,42.80
2019-05-06T10:03:42.624Z,42.44
2019-05-06T10:06:13.888Z,43.14
2019-05-06T10:08:45.797Z,43.31
2019-05-06T10:11:17.335Z,44.37
2019-05-06T10:13:48.738Z,43.31
2019-05-06T10:16:20.385Z,44.70
2019-05-06T10:18:52.487Z,43.06
2019-05-06T10:21:25.262Z,43.55
2019-05-06T10:23:56.771Z,42.32
2019-05-06T10:26:32.601Z,43.47
2019-05-06T10:29:06.706Z,42.49
2019-05-06T10:31:39.870Z,41.07
2019-05-06T10:34:13.832Z,39.55
2019-05-06T10:37:19.008Z,38.96
2019-05-06T10:40:13.494Z,38.52
2019-05-06T10:42:55.119Z,41.54
2019-05-06T10:45:32.695Z,40.48
2019-05-06T10:48:04.093Z,40.43
2019-05-06T10:50:37.176Z,41.63
2019-05-06T10:53:23.375Z,40.57
2019-05-06T10:55:55.849Z,42.68
2019-05-06T10:58:27.794Z,42.46
2019-05-06T11:01:12.778Z,41.42
2019-05-06T11:03:44.261Z,41.21
2019-05-06T11:06:15.751Z,41.68
2019-05-06T11:08:47.255Z,41.09
2019-05-06T11:11:31.639Z,42.58
2019-05-06T11:13:52.218Z,42.10
2019-05-06T11:16:23.891Z,42.31
2019-05-06T11:18:55.375Z,42.89
2019-05-06T11:21:26.808Z,43.38
2019-05-06T11:23:58.145Z,43.14
2019-05-06T11:26:29.750Z,44.02
2019-05-06T11:29:05.604Z,44.41
2019-05-06T11:31:38.576Z,44.06
2019-05-06T11:34:12.631Z,45.50
2019-05-06T11:36:43.971Z,45.13
2019-05-06T11:39:15.337Z,42.34
2019-05-06T11:42:01.439Z,43.68
2019-05-06T11:44:23.564Z,44.93
2019-05-06T11:46:53.773Z,42.30
2019-05-06T11:49:25.081Z,43.94
2019-05-06T11:52:02.542Z,42.13
2019-05-06T11:54:42.287Z,39.37
2019-05-06T11:57:14.485Z,39.86
2019-05-06T11:59:45.826Z,40.07
2019-05-06T12:02:19.863Z,41.15
2019-05-06T12:04:52.919Z,42.30
2019-05-06T12:07:24.886Z,40.28
2019-05-06T12:09:56.623Z,40.46
2019-05-06T12:12:27.883Z,36.49
2019-05-06T12:14:59.208Z,36.05
2019-05-06T12:17:31.813Z,36.44
2019-05-06T12:20:03.717Z,37.55
2019-05-06T12:22:38.164Z,39.34
2019-05-06T12:25:14.396Z,40.92
2019-05-06T12:27:47.660Z,42.51
2019-05-06T12:30:23.602Z,42.66
2019-05-06T12:33:03.912Z,41.45
2019-05-06T12:35:37.331Z,41.81
2019-05-06T12:38:23.879Z,44.01
2019-05-06T12:40:43.305Z,41.20
2019-05-06T12:43:14.450Z,42.39
2019-05-06T12:45:56.794Z,40.07
2019-05-06T12:48:29.871Z,40.40
2019-05-06T12:51:03.137Z,41.37
2019-05-06T12:53:34.770Z,38.13
2019-05-06T12:56:08.775Z,38.27
2019-05-06T12:58:44.065Z,37.35
2019-05-06T13:01:14.405Z,36.59
2019-05-06T13:03:45.952Z,35.29
2019-05-06T13:06:17.546Z,40.04
2019-05-06T13:08:58.924Z,39.31
2019-05-06T13:11:23.786Z,37.24
2019-05-06T13:14:00.844Z,36.91
2019-05-06T13:16:33.321Z,37.34
2019-05-06T13:19:07.829Z,37.69
2019-05-06T13:21:39.302Z,36.65
2019-05-06T13:24:36.013Z,34.27
2019-05-06T13:27:12.421Z,37.17
2019-05-06T13:29:43.255Z,36.06
2019-05-06T13:32:16.237Z,35.66
2019-05-06T13:34:47.670Z,36.95
2019-05-06T13:37:19.238Z,35.85
2019-05-06T13:39:52.962Z,39.35
2019-05-06T13:42:25.561Z,37.75
2019-05-06T13:44:57.259Z,37.93
2019-05-06T13:47:45.421Z,38.96
2019-05-06T13:50:19.637Z,40.26
2019-05-06T13:53:07.772Z,37.56
2019-05-06T13:55:27.218Z,35.90
2019-05-06T13:57:58.550Z,33.86
2019-05-06T14:00:32.852Z,35.65
2019-05-06T14:03:04.145Z,35.77
2019-05-06T14:05:35.625Z,35.52
2019-05-06T14:08:07.033Z,34.36
2019-05-06T14:10:38.472Z,34.91
2019-05-06T14:13:09.944Z,36.85
2019-05-06T14:15:42.049Z,38.75
2019-05-06T14:18:13.654Z,37.32
2019-05-06T14:20:47.441Z,36.63
2019-05-06T14:23:18.786Z,36.33
2019-05-06T14:26:04.302Z,37.48
2019-05-06T14:28:37.309Z,36.66
2019-05-06T14:31:10.268Z,36.67
2019-05-06T14:33:42.780Z,36.40
2019-05-06T14:36:14.483Z,35.56
2019-05-06T14:38:46.104Z,35.11
2019-05-06T14:41:26.118Z,35.44
2019-05-06T14:43:52.958Z,35.42
2019-05-06T14:46:24.472Z,36.91
2019-05-06T14:48:56.098Z,35.58
2019-05-06T14:51:29.109Z,35.92
2019-05-06T14:54:00.472Z,37.27
2019-05-06T14:56:33.493Z,32.96
2019-05-06T14:59:06.083Z,34.70
2019-05-06T15:01:38.540Z,34.65
2019-05-06T15:04:12.278Z,35.65
2019-05-06T15:06:43.097Z,36.46
2019-05-06T15:09:14.776Z,36.69
2019-05-06T15:11:46.231Z,34.66
2019-05-06T15:14:17.699Z,34.02
2019-05-06T15:16:49.097Z,36.02
2019-05-06T15:19:22.588Z,35.14
2019-05-06T15:21:53.968Z,37.50
2019-05-06T15:24:25.402Z,36.89
2019-05-06T15:26:56.737Z,36.38
2019-05-06T15:29:28.629Z,34.77
2019-05-06T15:32:02.354Z,35.05
2019-05-06T15:34:53.829Z,35.37
2019-05-06T15:37:24.627Z,35.47
2019-05-06T15:39:55.709Z,34.53
2019-05-06T15:42:27.022Z,33.64
2019-05-06T15:44:58.322Z,34.67
2019-05-06T15:47:32.276Z,34.54
2019-05-06T15:50:05.007Z,35.28
2019-05-06T15:52:36.530Z,34.58
2019-05-06T15:55:08.437Z,34.68
2019-05-06T15:57:39.812Z,34.32
2019-05-06T16:00:14.888Z,35.35
2019-05-06T16:02:46.344Z,34.82
2019-05-06T16:05:20.045Z,34.07
2019-05-06T16:07:52.951Z,34.69
2019-05-06T16:10:24.557Z,34.82
2019-05-06T16:12:55.921Z,34.33
2019-05-06T16:15:27.483Z,34.85
2019-05-06T16:17:58.796Z,34.78
2019-05-06T16:20:30.072Z,34.69
2019-05-06T16:23:07.110Z,36.09
2019-05-06T16:25:38.395Z,35.46
2019-05-06T16:28:23.865Z,35.86
2019-05-06T16:31:02.467Z,35.42
2019-05-06T16:33:34.033Z,36.04
2019-05-06T16:36:05.497Z,35.41
2019-05-06T16:38:47.089Z,34.93
2019-05-06T16:41:22.487Z,35.77
2019-05-06T16:43:53.826Z,37.55
2019-05-06T16:46:25.164Z,35.24
2019-05-06T16:48:56.598Z,37.07
2019-05-06T16:51:29.593Z,35.48
2019-05-06T16:54:19.926Z,36.81
2019-05-06T16:57:05.132Z,34.47
2019-05-06T16:59:36.495Z,34.28
2019-05-06T17:02:16.232Z,34.62
2019-05-06T17:04:49.293Z,36.18
2019-05-06T17:07:22.511Z,36.13
2019-05-06T17:09:53.869Z,35.76
2019-05-06T17:12:25.252Z,34.40
2019-05-06T17:14:56.690Z,35.72
2019-05-06T17:17:39.743Z,34.28
2019-05-06T17:20:03.066Z,34.82
2019-05-06T17:22:36.245Z,36.45
2019-05-06T17:25:07.841Z,34.80
2019-05-06T17:27:40.693Z,34.86
2019-05-06T17:30:33.062Z,35.14
2019-05-06T17:33:22.546Z,35.54
2019-05-06T17:35:54.001Z,35.31
2019-05-06T17:38:37.899Z,35.23
2019-05-06T17:41:09.406Z,35.39
2019-05-06T17:43:41.383Z,36.03
2019-05-06T17:46:15.817Z,36.57
2019-05-06T17:48:49.108Z,35.84
2019-05-06T17:51:22.076Z,36.46
2019-05-06T17:53:55.165Z,36.85
2019-05-06T17:56:26.615Z,37.19
2019-05-06T17:58:58.066Z,36.38
2019-05-06T18:01:32.625Z,36.90
2019-05-06T18:04:04.730Z,37.75
2019-05-06T18:06:36.282Z,38.30
2019-05-06T18:09:09.576Z,38.38
2019-05-06T18:11:57.562Z,38.04
2019-05-06T18:14:16.771Z,37.72
2019-05-06T18:16:48.215Z,37.99
2019-05-06T18:19:22.121Z,38.52
2019-05-06T18:21:53.017Z,38.57
2019-05-06T18:24:24.551Z,39.44
2019-05-06T18:26:56.057Z,39.90
2019-05-06T18:29:27.375Z,39.65
2019-05-06T18:31:58.876Z,39.71
2019-05-06T18:34:32.586Z,39.32
2019-05-06T18:37:03.883Z,39.97
2019-05-06T18:39:36.271Z,40.26
2019-05-06T18:42:17.065Z,41.50
2019-05-06T18:44:42.262Z,43.44
2019-05-06T18:47:13.924Z,42.76
2019-05-06T18:49:45.335Z,43.22
2019-05-06T18:52:16.826Z,43.39
2019-05-06T18:54:48.539Z,43.57
2019-05-06T18:57:19.814Z,44.80
2019-05-06T18:59:53.345Z,45.80
2019-05-06T19:02:26.804Z,46.58
2019-05-06T19:05:13.086Z,45.37
2019-05-06T19:07:46.780Z,46.05
2019-05-06T19:10:34.094Z,47.05
2019-05-06T19:13:08.612Z,45.85
2019-05-06T19:15:38.932Z,45.16
2019-05-06T19:18:12.815Z,45.44
2019-05-06T19:20:43.863Z,46.40
2019-05-06T19:23:15.550Z,46.61
2019-05-06T19:25:47.159Z,47.72
2019-05-06T19:28:21.994Z,48.40
2019-05-06T19:30:54.147Z,47.58
2019-05-06T19:33:26.212Z,47.61
2019-05-06T19:35:57.577Z,48.13
2019-05-06T19:38:29.058Z,49.03
2019-05-06T19:41:02.037Z,50.26
2019-05-06T19:43:33.714Z,50.64
2019-05-06T19:46:05.516Z,48.90
2019-05-06T19:48:37.256Z,48.06
2019-05-06T19:51:08.967Z,48.67
2019-05-06T19:53:42.705Z,50.91
2019-05-06T19:56:13.863Z,49.90
2019-05-06T19:58:45.470Z,49.21
2019-05-06T20:01:17.017Z,49.68
2019-05-06T20:03:48.453Z,50.88
2019-05-06T20:06:29.088Z,50.55
2019-05-06T20:09:27.735Z,47.80
2019-05-06T20:12:02.829Z,48.70
2019-05-06T20:14:34.186Z,48.43
2019-05-06T20:17:13.388Z,48.05
2019-05-06T20:19:46.587Z,47.87
2019-05-06T20:22:19.001Z,48.90
2019-05-06T20:25:03.319Z,50.48
2019-05-06T20:27:34.757Z,51.33
2019-05-06T20:30:07.780Z,50.52
2019-05-06T20:32:39.394Z,50.70
2019-05-06T20:35:14.249Z,49.93
2019-05-06T20:37:45.666Z,51.09
2019-05-06T20:40:17.960Z,52.18
2019-05-06T20:42:49.446Z,52.03
2019-05-06T20:45:22.409Z,50.41
2019-05-06T20:47:54.003Z,50.40
2019-05-06T20:50:28.314Z,50.09
2019-05-06T20:53:00.724Z,50.52
2019-05-06T20:55:35.279Z,50.94
2019-05-06T20:58:05.781Z,49.96
2019-05-06T21:00:37.251Z,50.12
2019-05-06T21:03:12.278Z,51.57
2019-05-06T21:05:43.767Z,50.66
2019-05-06T21:08:15.342Z,52.93
2019-05-06T21:10:49.502Z,52.99
2019-05-06T21:13:31.450Z,54.42
2019-05-06T21:15:58.822Z,54.94
2019-05-06T21:18:32.471Z,54.50
2019-05-06T21:21:03.836Z,54.22
2019-05-06T21:23:35.321Z,54.67
2019-05-06T21:26:15.796Z,54.82
2019-05-06T21:28:47.134Z,54.93
2019-05-06T21:31:23.012Z,55.47
2019-05-06T21:33:56.088Z,55.14
2019-05-06T21:36:29.076Z,54.35
2019-05-06T21:39:01.993Z,54.33
2019-05-06T21:41:35.139Z,55.85
2019-05-06T21:44:08.318Z,56.05
2019-05-06T21:46:43.143Z,55.81
2019-05-06T21:49:15.292Z,56.00
2019-05-06T21:51:46.778Z,55.58
2019-05-06T21:54:18.040Z,55.91
2019-05-06T21:56:49.807Z,56.95
2019-05-06T21:59:21.235Z,56.11
2019-05-06T22:01:55.818Z,55.40
2019-05-06T22:04:28.622Z,55.02
2019-05-06T22:07:02.872Z,56.52
2019-05-06T22:09:37.004Z,56.15
